sensor_id;sensor_type;location;lat;lon;timestamp;P1;durP1;ratioP1;P2;durP2;ratioP2
55633;SDS011;41504;53.162;6.788;2023-03-01T00:00:37;26.05;;;19.08;;
55633;SDS011;41504;53.162;6.788;2023-03-01T00:03:03;22.60;;;16.58;;
55633;SDS011;41504;53.162;6.788;2023-03-01T00:05:31;22.42;;;15.23;;
55633;SDS011;41504;53.162;6.788;2023-03-01T00:07:57;24.38;;;16.38;;
55633;SDS011;41504;53.162;6.788;2023-03-01T00:10:23;22.17;;;15.85;;
55633;SDS011;41504;53.162;6.788;2023-03-01T00:12:48;20.73;;;15.27;;
55633;SDS011;41504;53.162;6.788;2023-03-01T00:15:14;20.95;;;14.48;;
55633;SDS011;41504;53.162;6.788;2023-03-01T00:17:40;20.17;;;14.82;;
55633;SDS011;41504;53.162;6.788;2023-03-01T00:20:06;19.15;;;13.75;;
55633;SDS011;41504;53.162;6.788;2023-03-01T00:22:35;18.85;;;14.25;;
55633;SDS011;41504;53.162;6.788;2023-03-01T00:25:02;18.98;;;13.88;;
55633;SDS011;41504;53.162;6.788;2023-03-01T00:27:28;22.90;;;14.52;;
55633;SDS011;41504;53.162;6.788;2023-03-01T00:29:54;19.17;;;13.70;;
55633;SDS011;41504;53.162;6.788;2023-03-01T00:32:20;19.05;;;12.93;;
55633;SDS011;41504;53.162;6.788;2023-03-01T00:34:45;19.30;;;13.48;;
55633;SDS011;41504;53.162;6.788;2023-03-01T00:37:22;19.80;;;13.90;;
55633;SDS011;41504;53.162;6.788;2023-03-01T00:39:49;20.67;;;14.95;;
55633;SDS011;41504;53.162;6.788;2023-03-01T00:42:15;20.80;;;14.25;;
55633;SDS011;41504;53.162;6.788;2023-03-01T00:44:41;22.52;;;14.50;;
55633;SDS011;41504;53.162;6.788;2023-03-01T00:47:07;19.40;;;13.15;;
55633;SDS011;41504;53.162;6.788;2023-03-01T00:49:33;19.30;;;13.77;;
55633;SDS011;41504;53.162;6.788;2023-03-01T00:51:59;21.55;;;14.00;;
55633;SDS011;41504;53.162;6.788;2023-03-01T00:54:25;22.42;;;14.82;;
55633;SDS011;41504;53.162;6.788;2023-03-01T00:56:54;21.20;;;14.32;;
55633;SDS011;41504;53.162;6.788;2023-03-01T00:59:19;18.83;;;13.52;;
55633;SDS011;41504;53.162;6.788;2023-03-01T01:01:45;19.42;;;13.38;;
55633;SDS011;41504;53.162;6.788;2023-03-01T01:04:12;20.90;;;14.18;;
55633;SDS011;41504;53.162;6.788;2023-03-01T01:06:39;18.95;;;13.68;;
55633;SDS011;41504;53.162;6.788;2023-03-01T01:09:14;21.52;;;14.98;;
55633;SDS011;41504;53.162;6.788;2023-03-01T01:11:48;18.67;;;13.48;;
55633;SDS011;41504;53.162;6.788;2023-03-01T01:14:15;18.75;;;13.23;;
55633;SDS011;41504;53.162;6.788;2023-03-01T01:16:42;19.63;;;13.55;;
55633;SDS011;41504;53.162;6.788;2023-03-01T01:19:08;19.45;;;13.63;;
55633;SDS011;41504;53.162;6.788;2023-03-01T01:21:36;19.10;;;13.13;;
55633;SDS011;41504;53.162;6.788;2023-03-01T01:24:02;18.70;;;12.82;;
55633;SDS011;41504;53.162;6.788;2023-03-01T01:26:30;18.42;;;12.88;;
55633;SDS011;41504;53.162;6.788;2023-03-01T01:28:58;21.10;;;13.77;;
55633;SDS011;41504;53.162;6.788;2023-03-01T01:31:25;19.48;;;13.50;;
55633;SDS011;41504;53.162;6.788;2023-03-01T01:33:52;18.17;;;12.75;;
55633;SDS011;41504;53.162;6.788;2023-03-01T01:36:18;20.17;;;14.55;;
55633;SDS011;41504;53.162;6.788;2023-03-01T01:38:44;21.80;;;14.68;;
55633;SDS011;41504;53.162;6.788;2023-03-01T01:41:10;22.55;;;15.15;;
55633;SDS011;41504;53.162;6.788;2023-03-01T01:43:45;20.30;;;13.65;;
55633;SDS011;41504;53.162;6.788;2023-03-01T01:49:02;18.20;;;13.53;;
55633;SDS011;41504;53.162;6.788;2023-03-01T01:51:32;20.05;;;13.55;;
55633;SDS011;41504;53.162;6.788;2023-03-01T01:56:42;19.67;;;12.85;;
55633;SDS011;41504;53.162;6.788;2023-03-01T01:59:12;18.73;;;13.30;;
55633;SDS011;41504;53.162;6.788;2023-03-01T02:01:42;19.35;;;13.18;;
55633;SDS011;41504;53.162;6.788;2023-03-01T02:04:08;19.00;;;13.25;;
55633;SDS011;41504;53.162;6.788;2023-03-01T02:06:36;20.42;;;14.15;;
55633;SDS011;41504;53.162;6.788;2023-03-01T02:09:07;21.08;;;14.52;;
55633;SDS011;41504;53.162;6.788;2023-03-01T02:11:36;22.52;;;14.50;;
55633;SDS011;41504;53.162;6.788;2023-03-01T02:14:02;21.45;;;15.02;;
55633;SDS011;41504;53.162;6.788;2023-03-01T02:16:29;19.25;;;14.40;;
55633;SDS011;41504;53.162;6.788;2023-03-01T02:18:56;21.05;;;13.52;;
55633;SDS011;41504;53.162;6.788;2023-03-01T02:21:30;19.13;;;13.30;;
55633;SDS011;41504;53.162;6.788;2023-03-01T02:23:59;18.92;;;13.13;;
55633;SDS011;41504;53.162;6.788;2023-03-01T02:26:37;18.63;;;13.68;;
55633;SDS011;41504;53.162;6.788;2023-03-01T02:29:07;20.90;;;14.32;;
55633;SDS011;41504;53.162;6.788;2023-03-01T02:31:33;20.65;;;13.93;;
55633;SDS011;41504;53.162;6.788;2023-03-01T02:34:09;19.70;;;14.02;;
55633;SDS011;41504;53.162;6.788;2023-03-01T02:36:38;19.17;;;13.23;;
55633;SDS011;41504;53.162;6.788;2023-03-01T02:39:08;19.13;;;12.90;;
55633;SDS011;41504;53.162;6.788;2023-03-01T02:41:43;18.10;;;13.13;;
55633;SDS011;41504;53.162;6.788;2023-03-01T02:44:12;19.42;;;12.55;;
55633;SDS011;41504;53.162;6.788;2023-03-01T02:46:57;18.85;;;12.23;;
55633;SDS011;41504;53.162;6.788;2023-03-01T02:49:28;19.42;;;12.95;;
55633;SDS011;41504;53.162;6.788;2023-03-01T02:55:11;17.33;;;12.02;;
55633;SDS011;41504;53.162;6.788;2023-03-01T02:57:40;18.10;;;13.15;;
55633;SDS011;41504;53.162;6.788;2023-03-01T03:00:09;18.58;;;12.98;;
55633;SDS011;41504;53.162;6.788;2023-03-01T03:02:44;21.45;;;13.60;;
55633;SDS011;41504;53.162;6.788;2023-03-01T03:05:16;19.95;;;13.48;;
55633;SDS011;41504;53.162;6.788;2023-03-01T03:07:45;18.73;;;12.77;;
55633;SDS011;41504;53.162;6.788;2023-03-01T03:10:13;20.27;;;13.05;;
55633;SDS011;41504;53.162;6.788;2023-03-01T03:12:41;17.92;;;11.77;;
55633;SDS011;41504;53.162;6.788;2023-03-01T03:15:08;17.67;;;11.85;;
55633;SDS011;41504;53.162;6.788;2023-03-01T03:17:38;18.98;;;13.35;;
55633;SDS011;41504;53.162;6.788;2023-03-01T03:20:06;17.90;;;12.38;;
55633;SDS011;41504;53.162;6.788;2023-03-01T03:22:37;17.50;;;11.60;;
55633;SDS011;41504;53.162;6.788;2023-03-01T03:25:05;18.92;;;12.43;;
55633;SDS011;41504;53.162;6.788;2023-03-01T03:27:35;15.95;;;11.80;;
55633;SDS011;41504;53.162;6.788;2023-03-01T03:30:02;17.60;;;12.05;;
55633;SDS011;41504;53.162;6.788;2023-03-01T03:32:34;17.73;;;11.90;;
55633;SDS011;41504;53.162;6.788;2023-03-01T03:35:02;17.88;;;12.05;;
55633;SDS011;41504;53.162;6.788;2023-03-01T03:37:37;16.90;;;11.25;;
55633;SDS011;41504;53.162;6.788;2023-03-01T03:40:23;16.33;;;11.23;;
55633;SDS011;41504;53.162;6.788;2023-03-01T03:42:49;16.35;;;10.90;;
55633;SDS011;41504;53.162;6.788;2023-03-01T03:45:15;18.38;;;11.60;;
55633;SDS011;41504;53.162;6.788;2023-03-01T03:47:42;16.63;;;11.43;;
55633;SDS011;41504;53.162;6.788;2023-03-01T03:50:11;17.95;;;11.48;;
55633;SDS011;41504;53.162;6.788;2023-03-01T03:52:38;17.85;;;11.90;;
55633;SDS011;41504;53.162;6.788;2023-03-01T03:55:05;15.95;;;11.70;;
55633;SDS011;41504;53.162;6.788;2023-03-01T03:57:35;18.02;;;11.88;;
55633;SDS011;41504;53.162;6.788;2023-03-01T04:00:05;16.05;;;11.40;;
55633;SDS011;41504;53.162;6.788;2023-03-01T04:02:41;17.67;;;11.88;;
55633;SDS011;41504;53.162;6.788;2023-03-01T04:05:08;17.63;;;12.50;;
55633;SDS011;41504;53.162;6.788;2023-03-01T04:07:35;19.80;;;13.23;;
55633;SDS011;41504;53.162;6.788;2023-03-01T04:10:05;18.88;;;12.85;;
55633;SDS011;41504;53.162;6.788;2023-03-01T04:12:34;19.88;;;13.30;;
55633;SDS011;41504;53.162;6.788;2023-03-01T04:15:03;18.15;;;12.60;;
55633;SDS011;41504;53.162;6.788;2023-03-01T04:17:44;18.65;;;13.07;;
55633;SDS011;41504;53.162;6.788;2023-03-01T04:20:18;21.42;;;14.15;;
55633;SDS011;41504;53.162;6.788;2023-03-01T04:25:23;19.83;;;13.63;;
55633;SDS011;41504;53.162;6.788;2023-03-01T04:27:49;21.75;;;13.30;;
55633;SDS011;41504;53.162;6.788;2023-03-01T04:30:15;22.08;;;13.63;;
55633;SDS011;41504;53.162;6.788;2023-03-01T04:32:41;20.40;;;13.90;;
55633;SDS011;41504;53.162;6.788;2023-03-01T04:35:07;20.88;;;12.75;;
55633;SDS011;41504;53.162;6.788;2023-03-01T04:37:33;22.85;;;13.77;;
55633;SDS011;41504;53.162;6.788;2023-03-01T04:40:00;22.50;;;14.13;;
55633;SDS011;41504;53.162;6.788;2023-03-01T04:42:41;21.88;;;14.85;;
55633;SDS011;41504;53.162;6.788;2023-03-01T04:45:07;22.70;;;15.30;;
55633;SDS011;41504;53.162;6.788;2023-03-01T04:47:38;19.85;;;14.25;;
55633;SDS011;41504;53.162;6.788;2023-03-01T04:50:10;22.60;;;15.23;;
55633;SDS011;41504;53.162;6.788;2023-03-01T04:52:36;21.80;;;13.95;;
55633;SDS011;41504;53.162;6.788;2023-03-01T04:55:02;19.75;;;13.38;;
55633;SDS011;41504;53.162;6.788;2023-03-01T04:57:32;21.15;;;14.48;;
55633;SDS011;41504;53.162;6.788;2023-03-01T05:00:05;22.95;;;15.57;;
55633;SDS011;41504;53.162;6.788;2023-03-01T05:03:05;21.23;;;15.27;;
55633;SDS011;41504;53.162;6.788;2023-03-01T05:05:32;24.05;;;15.98;;
55633;SDS011;41504;53.162;6.788;2023-03-01T05:08:00;21.73;;;15.07;;
55633;SDS011;41504;53.162;6.788;2023-03-01T05:10:33;21.17;;;14.40;;
55633;SDS011;41504;53.162;6.788;2023-03-01T05:13:01;23.67;;;16.13;;
55633;SDS011;41504;53.162;6.788;2023-03-01T05:15:28;23.83;;;16.38;;
55633;SDS011;41504;53.162;6.788;2023-03-01T05:17:56;21.50;;;15.90;;
55633;SDS011;41504;53.162;6.788;2023-03-01T05:20:29;20.65;;;14.73;;
55633;SDS011;41504;53.162;6.788;2023-03-01T05:22:59;22.80;;;16.15;;
55633;SDS011;41504;53.162;6.788;2023-03-01T05:25:25;25.25;;;16.35;;
55633;SDS011;41504;53.162;6.788;2023-03-01T05:27:51;25.17;;;15.93;;
55633;SDS011;41504;53.162;6.788;2023-03-01T05:30:17;22.85;;;15.48;;
55633;SDS011;41504;53.162;6.788;2023-03-01T05:32:47;25.85;;;16.88;;
55633;SDS011;41504;53.162;6.788;2023-03-01T05:35:16;25.05;;;15.75;;
55633;SDS011;41504;53.162;6.788;2023-03-01T05:37:43;25.27;;;16.15;;
55633;SDS011;41504;53.162;6.788;2023-03-01T05:40:11;22.38;;;15.07;;
55633;SDS011;41504;53.162;6.788;2023-03-01T05:42:43;20.65;;;14.30;;
55633;SDS011;41504;53.162;6.788;2023-03-01T05:45:17;18.48;;;12.38;;
55633;SDS011;41504;53.162;6.788;2023-03-01T05:47:44;15.75;;;11.23;;
55633;SDS011;41504;53.162;6.788;2023-03-01T05:50:18;14.43;;;10.77;;
55633;SDS011;41504;53.162;6.788;2023-03-01T05:53:00;14.38;;;10.80;;
55633;SDS011;41504;53.162;6.788;2023-03-01T05:55:28;15.35;;;11.18;;
55633;SDS011;41504;53.162;6.788;2023-03-01T05:57:57;15.13;;;11.20;;
55633;SDS011;41504;53.162;6.788;2023-03-01T06:00:25;15.80;;;12.15;;
55633;SDS011;41504;53.162;6.788;2023-03-01T06:02:54;16.00;;;12.25;;
55633;SDS011;41504;53.162;6.788;2023-03-01T06:05:24;17.15;;;12.60;;
55633;SDS011;41504;53.162;6.788;2023-03-01T06:07:50;17.10;;;13.40;;
55633;SDS011;41504;53.162;6.788;2023-03-01T06:10:18;16.42;;;12.63;;
55633;SDS011;41504;53.162;6.788;2023-03-01T06:12:45;16.85;;;12.90;;
55633;SDS011;41504;53.162;6.788;2023-03-01T06:15:15;14.88;;;12.05;;
55633;SDS011;41504;53.162;6.788;2023-03-01T06:17:42;15.80;;;11.60;;
55633;SDS011;41504;53.162;6.788;2023-03-01T06:20:27;16.85;;;13.13;;
55633;SDS011;41504;53.162;6.788;2023-03-01T06:22:54;17.27;;;14.23;;
55633;SDS011;41504;53.162;6.788;2023-03-01T06:25:20;17.23;;;13.68;;
55633;SDS011;41504;53.162;6.788;2023-03-01T06:27:47;13.75;;;10.93;;
55633;SDS011;41504;53.162;6.788;2023-03-01T06:30:14;20.20;;;17.20;;
55633;SDS011;41504;53.162;6.788;2023-03-01T06:32:42;17.65;;;14.57;;
55633;SDS011;41504;53.162;6.788;2023-03-01T06:35:08;17.23;;;13.70;;
55633;SDS011;41504;53.162;6.788;2023-03-01T06:37:35;15.73;;;12.38;;
55633;SDS011;41504;53.162;6.788;2023-03-01T06:40:02;14.98;;;11.98;;
55633;SDS011;41504;53.162;6.788;2023-03-01T06:42:36;16.15;;;13.27;;
55633;SDS011;41504;53.162;6.788;2023-03-01T06:45:04;24.13;;;21.75;;
55633;SDS011;41504;53.162;6.788;2023-03-01T06:47:31;15.23;;;12.40;;
55633;SDS011;41504;53.162;6.788;2023-03-01T06:49:58;14.25;;;11.32;;
55633;SDS011;41504;53.162;6.788;2023-03-01T06:52:30;14.18;;;10.93;;
55633;SDS011;41504;53.162;6.788;2023-03-01T06:54:56;11.90;;;10.25;;
55633;SDS011;41504;53.162;6.788;2023-03-01T06:57:22;12.63;;;9.45;;
55633;SDS011;41504;53.162;6.788;2023-03-01T06:59:48;12.18;;;9.88;;
55633;SDS011;41504;53.162;6.788;2023-03-01T07:02:14;12.32;;;10.20;;
55633;SDS011;41504;53.162;6.788;2023-03-01T07:04:40;11.98;;;9.05;;
55633;SDS011;41504;53.162;6.788;2023-03-01T07:07:06;11.88;;;9.65;;
55633;SDS011;41504;53.162;6.788;2023-03-01T07:09:32;13.63;;;10.38;;
55633;SDS011;41504;53.162;6.788;2023-03-01T07:11:58;13.88;;;10.48;;
55633;SDS011;41504;53.162;6.788;2023-03-01T07:14:24;13.45;;;10.90;;
55633;SDS011;41504;53.162;6.788;2023-03-01T07:16:53;14.23;;;11.85;;
55633;SDS011;41504;53.162;6.788;2023-03-01T07:19:19;13.95;;;11.73;;
55633;SDS011;41504;53.162;6.788;2023-03-01T07:21:45;14.50;;;11.40;;
55633;SDS011;41504;53.162;6.788;2023-03-01T07:24:11;14.40;;;10.98;;
55633;SDS011;41504;53.162;6.788;2023-03-01T07:26:36;14.38;;;11.20;;
55633;SDS011;41504;53.162;6.788;2023-03-01T07:29:03;16.08;;;11.40;;
55633;SDS011;41504;53.162;6.788;2023-03-01T07:31:31;15.98;;;11.50;;
55633;SDS011;41504;53.162;6.788;2023-03-01T07:33:57;16.90;;;11.70;;
55633;SDS011;41504;53.162;6.788;2023-03-01T07:36:24;15.43;;;12.07;;
55633;SDS011;41504;53.162;6.788;2023-03-01T07:38:52;15.23;;;11.82;;
55633;SDS011;41504;53.162;6.788;2023-03-01T07:41:23;16.08;;;11.63;;
55633;SDS011;41504;53.162;6.788;2023-03-01T07:43:49;16.55;;;12.52;;
55633;SDS011;41504;53.162;6.788;2023-03-01T07:46:15;16.52;;;12.93;;
55633;SDS011;41504;53.162;6.788;2023-03-01T07:48:41;16.35;;;12.88;;
55633;SDS011;41504;53.162;6.788;2023-03-01T07:51:07;18.67;;;14.20;;
55633;SDS011;41504;53.162;6.788;2023-03-01T07:53:33;18.20;;;14.35;;
55633;SDS011;41504;53.162;6.788;2023-03-01T07:56:00;20.45;;;14.95;;
55633;SDS011;41504;53.162;6.788;2023-03-01T07:58:30;20.73;;;14.77;;
55633;SDS011;41504;53.162;6.788;2023-03-01T08:01:00;20.65;;;15.05;;
55633;SDS011;41504;53.162;6.788;2023-03-01T08:03:30;20.27;;;15.27;;
55633;SDS011;41504;53.162;6.788;2023-03-01T08:05:55;21.35;;;15.60;;
55633;SDS011;41504;53.162;6.788;2023-03-01T08:08:24;20.48;;;15.05;;
55633;SDS011;41504;53.162;6.788;2023-03-01T08:10:49;24.58;;;17.50;;
55633;SDS011;41504;53.162;6.788;2023-03-01T08:13:15;22.98;;;16.20;;
55633;SDS011;41504;53.162;6.788;2023-03-01T08:15:41;22.92;;;16.20;;
55633;SDS011;41504;53.162;6.788;2023-03-01T08:18:06;23.23;;;16.85;;
55633;SDS011;41504;53.162;6.788;2023-03-01T08:20:32;23.60;;;17.05;;
55633;SDS011;41504;53.162;6.788;2023-03-01T08:22:58;28.40;;;19.27;;
55633;SDS011;41504;53.162;6.788;2023-03-01T08:25:23;30.52;;;20.35;;
55633;SDS011;41504;53.162;6.788;2023-03-01T08:27:49;33.13;;;20.88;;
55633;SDS011;41504;53.162;6.788;2023-03-01T08:30:15;28.33;;;19.27;;
55633;SDS011;41504;53.162;6.788;2023-03-01T08:32:41;28.02;;;20.30;;
55633;SDS011;41504;53.162;6.788;2023-03-01T08:35:09;30.67;;;20.98;;
55633;SDS011;41504;53.162;6.788;2023-03-01T08:37:35;32.13;;;21.80;;
55633;SDS011;41504;53.162;6.788;2023-03-01T08:40:00;33.63;;;23.33;;
55633;SDS011;41504;53.162;6.788;2023-03-01T08:42:30;36.22;;;23.35;;
55633;SDS011;41504;53.162;6.788;2023-03-01T08:44:57;38.47;;;23.83;;
55633;SDS011;41504;53.162;6.788;2023-03-01T08:47:23;33.15;;;22.02;;
55633;SDS011;41504;53.162;6.788;2023-03-01T08:49:49;31.95;;;21.83;;
55633;SDS011;41504;53.162;6.788;2023-03-01T08:52:15;31.20;;;21.90;;
55633;SDS011;41504;53.162;6.788;2023-03-01T08:54:41;37.78;;;23.23;;
55633;SDS011;41504;53.162;6.788;2023-03-01T08:57:07;34.65;;;22.95;;
55633;SDS011;41504;53.162;6.788;2023-03-01T08:59:34;34.50;;;23.90;;
55633;SDS011;41504;53.162;6.788;2023-03-01T09:02:05;35.65;;;24.05;;
55633;SDS011;41504;53.162;6.788;2023-03-01T09:04:35;35.22;;;24.02;;
55633;SDS011;41504;53.162;6.788;2023-03-01T09:07:01;34.92;;;23.40;;
55633;SDS011;41504;53.162;6.788;2023-03-01T09:09:27;34.65;;;23.35;;
55633;SDS011;41504;53.162;6.788;2023-03-01T09:11:52;34.97;;;22.17;;
55633;SDS011;41504;53.162;6.788;2023-03-01T09:14:18;32.67;;;22.60;;
55633;SDS011;41504;53.162;6.788;2023-03-01T09:16:44;35.40;;;24.45;;
55633;SDS011;41504;53.162;6.788;2023-03-01T09:19:10;39.67;;;25.73;;
55633;SDS011;41504;53.162;6.788;2023-03-01T09:21:36;37.35;;;24.90;;
55633;SDS011;41504;53.162;6.788;2023-03-01T09:24:03;34.28;;;24.02;;
55633;SDS011;41504;53.162;6.788;2023-03-01T09:26:28;36.60;;;24.92;;
55633;SDS011;41504;53.162;6.788;2023-03-01T09:28:55;38.65;;;26.75;;
55633;SDS011;41504;53.162;6.788;2023-03-01T09:31:22;38.55;;;25.73;;
55633;SDS011;41504;53.162;6.788;2023-03-01T09:33:50;35.80;;;23.10;;
55633;SDS011;41504;53.162;6.788;2023-03-01T09:36:21;37.03;;;24.70;;
55633;SDS011;41504;53.162;6.788;2023-03-01T09:38:48;35.10;;;24.65;;
55633;SDS011;41504;53.162;6.788;2023-03-01T09:46:10;37.30;;;23.95;;
55633;SDS011;41504;53.162;6.788;2023-03-01T09:48:42;30.33;;;22.17;;
55633;SDS011;41504;53.162;6.788;2023-03-01T09:51:30;26.02;;;19.10;;
55633;SDS011;41504;53.162;6.788;2023-03-01T09:53:57;27.15;;;19.25;;
55633;SDS011;41504;53.162;6.788;2023-03-01T09:58:57;27.08;;;19.48;;
55633;SDS011;41504;53.162;6.788;2023-03-01T10:07:27;30.45;;;19.98;;
55633;SDS011;41504;53.162;6.788;2023-03-01T10:10:23;29.27;;;20.88;;
55633;SDS011;41504;53.162;6.788;2023-03-01T10:12:53;30.63;;;20.63;;
55633;SDS011;41504;53.162;6.788;2023-03-01T10:15:34;28.48;;;19.50;;
55633;SDS011;41504;53.162;6.788;2023-03-01T10:18:38;29.38;;;20.30;;
55633;SDS011;41504;53.162;6.788;2023-03-01T10:21:07;30.60;;;19.73;;
55633;SDS011;41504;53.162;6.788;2023-03-01T10:23:38;28.20;;;18.00;;
55633;SDS011;41504;53.162;6.788;2023-03-01T10:26:12;28.35;;;19.00;;
55633;SDS011;41504;53.162;6.788;2023-03-01T10:28:53;25.85;;;17.27;;
55633;SDS011;41504;53.162;6.788;2023-03-01T10:31:30;27.42;;;18.33;;
55633;SDS011;41504;53.162;6.788;2023-03-01T10:34:31;27.95;;;17.40;;
55633;SDS011;41504;53.162;6.788;2023-03-01T10:43:02;23.65;;;16.33;;
55633;SDS011;41504;53.162;6.788;2023-03-01T10:48:19;24.63;;;16.13;;
55633;SDS011;41504;53.162;6.788;2023-03-01T11:01:37;25.73;;;16.90;;
55633;SDS011;41504;53.162;6.788;2023-03-01T11:06:32;25.40;;;16.60;;
55633;SDS011;41504;53.162;6.788;2023-03-01T11:11:45;22.10;;;15.73;;
55633;SDS011;41504;53.162;6.788;2023-03-01T11:14:21;23.00;;;15.25;;
55633;SDS011;41504;53.162;6.788;2023-03-01T11:17:01;24.67;;;16.38;;
55633;SDS011;41504;53.162;6.788;2023-03-01T11:19:29;20.65;;;14.75;;
55633;SDS011;41504;53.162;6.788;2023-03-01T11:24:29;20.17;;;14.82;;
55633;SDS011;41504;53.162;6.788;2023-03-01T11:27:33;22.27;;;14.75;;
55633;SDS011;41504;53.162;6.788;2023-03-01T11:30:05;21.42;;;14.65;;
55633;SDS011;41504;53.162;6.788;2023-03-01T11:32:42;22.15;;;15.30;;
55633;SDS011;41504;53.162;6.788;2023-03-01T11:35:33;23.60;;;15.55;;
55633;SDS011;41504;53.162;6.788;2023-03-01T11:38:15;22.40;;;15.95;;
55633;SDS011;41504;53.162;6.788;2023-03-01T11:41:02;24.10;;;16.58;;
55633;SDS011;41504;53.162;6.788;2023-03-01T11:43:40;19.00;;;13.20;;
55633;SDS011;41504;53.162;6.788;2023-03-01T11:54:55;19.98;;;14.60;;
55633;SDS011;41504;53.162;6.788;2023-03-01T11:57:43;22.73;;;15.95;;
55633;SDS011;41504;53.162;6.788;2023-03-01T12:03:45;20.48;;;14.38;;
55633;SDS011;41504;53.162;6.788;2023-03-01T12:06:54;24.08;;;14.25;;
55633;SDS011;41504;53.162;6.788;2023-03-01T12:12:53;23.10;;;13.70;;
55633;SDS011;41504;53.162;6.788;2023-03-01T12:15:33;19.70;;;12.90;;
55633;SDS011;41504;53.162;6.788;2023-03-01T12:44:57;19.38;;;12.68;;
55633;SDS011;41504;53.162;6.788;2023-03-01T12:47:34;20.35;;;13.20;;
55633;SDS011;41504;53.162;6.788;2023-03-01T12:50:17;18.85;;;12.13;;
55633;SDS011;41504;53.162;6.788;2023-03-01T12:52:47;17.92;;;13.10;;
55633;SDS011;41504;53.162;6.788;2023-03-01T12:55:39;18.35;;;13.05;;
55633;SDS011;41504;53.162;6.788;2023-03-01T13:17:58;20.58;;;13.05;;
55633;SDS011;41504;53.162;6.788;2023-03-01T13:20:29;20.38;;;13.23;;
55633;SDS011;41504;53.162;6.788;2023-03-01T13:23:02;20.45;;;13.80;;
55633;SDS011;41504;53.162;6.788;2023-03-01T13:31:02;23.63;;;14.35;;
55633;SDS011;41504;53.162;6.788;2023-03-01T13:35:55;20.38;;;13.55;;
55633;SDS011;41504;53.162;6.788;2023-03-01T13:44:25;21.45;;;13.95;;
55633;SDS011;41504;53.162;6.788;2023-03-01T13:49:43;19.63;;;14.50;;
55633;SDS011;41504;53.162;6.788;2023-03-01T13:58:04;24.08;;;15.20;;
55633;SDS011;41504;53.162;6.788;2023-03-01T14:00:40;22.58;;;16.08;;
55633;SDS011;41504;53.162;6.788;2023-03-01T14:03:16;23.58;;;15.35;;
55633;SDS011;41504;53.162;6.788;2023-03-01T14:08:40;21.60;;;15.65;;
55633;SDS011;41504;53.162;6.788;2023-03-01T14:13:58;20.85;;;15.30;;
55633;SDS011;41504;53.162;6.788;2023-03-01T14:19:10;23.17;;;16.02;;
55633;SDS011;41504;53.162;6.788;2023-03-01T14:21:45;21.90;;;15.68;;
55633;SDS011;41504;53.162;6.788;2023-03-01T14:24:24;22.52;;;15.82;;
55633;SDS011;41504;53.162;6.788;2023-03-01T14:26:52;21.90;;;15.05;;
55633;SDS011;41504;53.162;6.788;2023-03-01T14:29:33;21.45;;;15.07;;
55633;SDS011;41504;53.162;6.788;2023-03-01T14:32:21;23.48;;;15.30;;
55633;SDS011;41504;53.162;6.788;2023-03-01T14:34:50;19.77;;;14.75;;
55633;SDS011;41504;53.162;6.788;2023-03-01T14:37:24;19.30;;;13.70;;
55633;SDS011;41504;53.162;6.788;2023-03-01T14:39:52;22.85;;;14.65;;
55633;SDS011;41504;53.162;6.788;2023-03-01T14:42:19;19.75;;;13.45;;
55633;SDS011;41504;53.162;6.788;2023-03-01T14:44:48;22.20;;;14.98;;
55633;SDS011;41504;53.162;6.788;2023-03-01T14:47:29;22.13;;;14.40;;
55633;SDS011;41504;53.162;6.788;2023-03-01T14:49:58;22.90;;;14.30;;
55633;SDS011;41504;53.162;6.788;2023-03-01T14:52:32;23.30;;;16.17;;
55633;SDS011;41504;53.162;6.788;2023-03-01T14:55:02;21.88;;;14.80;;
55633;SDS011;41504;53.162;6.788;2023-03-01T14:57:33;23.13;;;15.43;;
55633;SDS011;41504;53.162;6.788;2023-03-01T15:00:00;21.35;;;15.15;;
55633;SDS011;41504;53.162;6.788;2023-03-01T15:02:31;19.95;;;14.60;;
55633;SDS011;41504;53.162;6.788;2023-03-01T15:04:58;21.30;;;14.57;;
55633;SDS011;41504;53.162;6.788;2023-03-01T15:07:34;21.08;;;14.32;;
55633;SDS011;41504;53.162;6.788;2023-03-01T15:10:04;22.55;;;14.73;;
55633;SDS011;41504;53.162;6.788;2023-03-01T15:15:21;21.73;;;14.73;;
55633;SDS011;41504;53.162;6.788;2023-03-01T15:17:55;21.80;;;15.05;;
55633;SDS011;41504;53.162;6.788;2023-03-01T15:20:24;21.25;;;14.07;;
55633;SDS011;41504;53.162;6.788;2023-03-01T15:22:52;21.42;;;15.35;;
55633;SDS011;41504;53.162;6.788;2023-03-01T15:25:24;22.92;;;14.90;;
55633;SDS011;41504;53.162;6.788;2023-03-01T15:27:52;21.30;;;14.23;;
55633;SDS011;41504;53.162;6.788;2023-03-01T15:30:24;21.95;;;14.52;;
55633;SDS011;41504;53.162;6.788;2023-03-01T15:35:44;22.77;;;15.43;;
55633;SDS011;41504;53.162;6.788;2023-03-01T15:40:58;21.08;;;14.93;;
55633;SDS011;41504;53.162;6.788;2023-03-01T15:43:38;22.50;;;15.13;;
55633;SDS011;41504;53.162;6.788;2023-03-01T15:46:16;21.75;;;14.85;;
55633;SDS011;41504;53.162;6.788;2023-03-01T15:51:17;22.95;;;15.18;;
55633;SDS011;41504;53.162;6.788;2023-03-01T15:56:41;20.13;;;13.30;;
55633;SDS011;41504;53.162;6.788;2023-03-01T15:59:08;20.63;;;13.73;;
55633;SDS011;41504;53.162;6.788;2023-03-01T16:01:36;20.42;;;13.35;;
55633;SDS011;41504;53.162;6.788;2023-03-01T16:04:02;20.52;;;13.40;;
55633;SDS011;41504;53.162;6.788;2023-03-01T16:06:28;21.73;;;13.70;;
55633;SDS011;41504;53.162;6.788;2023-03-01T16:08:54;19.73;;;13.48;;
55633;SDS011;41504;53.162;6.788;2023-03-01T16:11:20;19.52;;;13.23;;
55633;SDS011;41504;53.162;6.788;2023-03-01T16:13:48;18.52;;;13.23;;
55633;SDS011;41504;53.162;6.788;2023-03-01T16:16:15;19.00;;;12.82;;
55633;SDS011;41504;53.162;6.788;2023-03-01T16:18:42;19.67;;;13.18;;
55633;SDS011;41504;53.162;6.788;2023-03-01T16:21:12;19.90;;;13.10;;
55633;SDS011;41504;53.162;6.788;2023-03-01T16:23:45;18.73;;;13.25;;
55633;SDS011;41504;53.162;6.788;2023-03-01T16:26:14;19.02;;;13.18;;
55633;SDS011;41504;53.162;6.788;2023-03-01T16:28:43;19.52;;;12.32;;
55633;SDS011;41504;53.162;6.788;2023-03-01T16:31:10;20.08;;;13.10;;
55633;SDS011;41504;53.162;6.788;2023-03-01T16:33:37;18.23;;;12.13;;
55633;SDS011;41504;53.162;6.788;2023-03-01T16:36:10;18.38;;;13.68;;
55633;SDS011;41504;53.162;6.788;2023-03-01T16:38:37;20.90;;;13.65;;
55633;SDS011;41504;53.162;6.788;2023-03-01T16:41:04;19.42;;;13.45;;
55633;SDS011;41504;53.162;6.788;2023-03-01T16:43:30;18.65;;;13.07;;
55633;SDS011;41504;53.162;6.788;2023-03-01T16:45:56;20.17;;;13.85;;
55633;SDS011;41504;53.162;6.788;2023-03-01T16:48:23;19.58;;;14.02;;
55633;SDS011;41504;53.162;6.788;2023-03-01T16:50:56;19.67;;;13.45;;
55633;SDS011;41504;53.162;6.788;2023-03-01T16:53:27;19.58;;;13.52;;
55633;SDS011;41504;53.162;6.788;2023-03-01T16:55:54;19.60;;;13.70;;
55633;SDS011;41504;53.162;6.788;2023-03-01T16:58:24;19.63;;;14.15;;
55633;SDS011;41504;53.162;6.788;2023-03-01T17:00:53;23.45;;;15.13;;
55633;SDS011;41504;53.162;6.788;2023-03-01T17:03:20;19.73;;;13.32;;
55633;SDS011;41504;53.162;6.788;2023-03-01T17:05:54;20.00;;;14.00;;
55633;SDS011;41504;53.162;6.788;2023-03-01T17:08:20;22.20;;;14.55;;
55633;SDS011;41504;53.162;6.788;2023-03-01T17:10:45;22.30;;;15.52;;
55633;SDS011;41504;53.162;6.788;2023-03-01T17:13:11;19.75;;;14.13;;
55633;SDS011;41504;53.162;6.788;2023-03-01T17:15:38;20.58;;;14.65;;